Time;durP1;ratioP1;P1;durP2;ratioP2;P2;SDS_P1;SDS_P2;PMS_P1;PMS_P2;Temp;Humidity;BMP_temperature;BMP_pressure;BME280_temperature;BME280_humidity;BME280_pressure;Samples;Min_cycle;Max_cycle;Signal;HPM_P1;HPM_P2
2023/04/28 00:01:43;;;;;;;3.25;1.85;;;;;;;-147.53;100.00;57128.34;10159999;29;20060;-83
2023/04/28 00:06:45;;;;;;;3.17;1.75;;;;;;;-147.53;100.00;57128.34;10158331;29;20084;-82
2023/04/28 00:11:46;;;;;;;1.35;1.08;;;;;;;-147.53;100.00;57128.34;10158581;29;20448;-83
2023/04/28 00:16:48;;;;;;;2.33;1.40;;;;;;;-147.53;100.00;57128.34;10158131;29;20059;-83
2023/04/28 00:21:50;;;;;;;2.35;1.20;;;;;;;-147.53;100.00;57128.34;10157949;29;20056;-83
2023/04/28 00:26:51;;;;;;;4.00;1.73;;;;;;;-147.53;100.00;57128.34;10163449;29;20055;-83
2023/04/28 00:31:53;;;;;;;1.00;0.93;;;;;;;-147.53;100.00;57128.34;10147096;29;20171;-84
2023/04/28 00:36:56;;;;;;;2.38;1.45;;;;;;;-147.53;100.00;57128.34;10146507;29;20465;-82
2023/04/28 00:41:57;;;;;;;3.40;2.00;;;;;;;-147.53;100.00;57128.34;10146677;29;20054;-83
2023/04/28 00:47:00;;;;;;;2.97;1.67;;;;;;;-147.53;100.00;57128.34;10146717;29;20059;-83
2023/04/28 00:52:04;;;;;;;4.50;2.13;;;;;;;-147.53;100.00;57128.34;10163438;29;20074;-82
2023/04/28 00:57:08;;;;;;;1.67;1.27;;;;;;;-147.53;100.00;57128.34;10145212;29;20087;-83
2023/04/28 01:02:16;;;;;;;3.97;2.35;;;;;;;-147.53;100.00;57128.34;10146440;29;20060;-83
2023/04/28 01:07:18;;;;;;;3.80;2.25;;;;;;;-147.53;100.00;57128.34;10145101;29;20162;-84
2023/04/28 01:12:20;;;;;;;4.50;1.95;;;;;;;-147.53;100.00;57128.34;10146572;29;20055;-84
2023/04/28 01:17:24;;;;;;;4.90;2.28;;;;;;;-147.53;100.00;57128.34;10146263;29;20055;-83
2023/04/28 01:22:26;;;;;;;3.95;2.35;;;;;;;-147.53;100.00;57128.34;10162707;29;20054;-84
2023/04/28 01:27:27;;;;;;;3.88;2.35;;;;;;;-147.53;100.00;57128.34;10129256;29;20052;-83
2023/04/28 01:32:29;;;;;;;3.88;2.53;;;;;;;-147.53;100.00;57128.34;10144666;29;20098;-83
2023/04/28 01:37:31;;;;;;;3.90;2.35;;;;;;;-147.53;100.00;57128.34;10161053;29;20708;-83
2023/04/28 01:42:34;;;;;;;3.97;1.83;;;;;;;-147.53;100.00;57128.34;10144358;29;20056;-83
2023/04/28 01:47:36;;;;;;;5.95;3.08;;;;;;;-147.53;100.00;57128.34;10143523;29;20539;-83
2023/04/28 01:52:38;;;;;;;4.78;2.42;;;;;;;-147.53;100.00;57128.34;10161410;29;20052;-83
2023/04/28 01:57:39;;;;;;;5.82;2.90;;;;;;;-147.53;100.00;57128.34;10159720;29;20079;-82
2023/04/28 02:02:41;;;;;;;3.38;1.88;;;;;;;-147.53;100.00;57128.34;10160740;29;20055;-83
2023/04/28 02:07:44;;;;;;;4.45;2.70;;;;;;;-147.53;100.00;57128.34;10135633;29;20509;-83
2023/04/28 02:12:45;;;;;;;4.03;2.42;;;;;;;-147.53;100.00;57128.34;10159394;29;20052;-84
2023/04/28 02:17:47;;;;;;;2.28;1.42;;;;;;;-147.53;100.00;57128.34;10143266;29;20044;-84
2023/04/28 02:22:49;;;;;;;2.20;1.42;;;;;;;-147.53;100.00;57128.34;10135607;29;20805;-84
2023/04/28 02:27:50;;;;;;;3.90;2.08;;;;;;;-147.53;100.00;57128.34;10142410;29;20046;-83
2023/04/28 02:32:52;;;;;;;6.63;3.13;;;;;;;-147.53;100.00;57128.34;10160465;29;20060;-83
2023/04/28 02:37:54;;;;;;;3.15;1.85;;;;;;;-147.53;100.00;57128.34;10144014;29;20688;-84
2023/04/28 02:42:55;;;;;;;3.38;1.92;;;;;;;-147.53;100.00;57128.34;10157203;29;20082;-83
2023/04/28 02:48:01;;;;;;;6.88;2.67;;;;;;;-147.53;100.00;57128.34;10142753;29;20048;-83
2023/04/28 02:53:02;;;;;;;3.10;1.88;;;;;;;-147.53;100.00;57128.34;10159725;29;20048;-82
2023/04/28 02:58:04;;;;;;;2.55;1.55;;;;;;;-147.53;100.00;57128.34;10142706;29;20048;-83
2023/04/28 03:03:05;;;;;;;2.10;1.33;;;;;;;-147.53;100.00;57128.34;10159669;29;20052;-83
2023/04/28 03:08:07;;;;;;;6.10;2.65;;;;;;;-147.53;100.00;57128.34;10142089;29;20533;-84
2023/04/28 03:13:09;;;;;;;4.55;1.83;;;;;;;-147.53;100.00;57128.34;10142145;29;20079;-83
2023/04/28 03:18:11;;;;;;;6.57;2.47;;;;;;;-147.53;100.00;57128.34;10141763;29;20131;-84
2023/04/28 03:23:13;;;;;;;4.65;1.77;;;;;;;-147.53;100.00;57128.34;10158376;29;20044;-83
2023/04/28 03:28:15;;;;;;;14.50;3.22;;;;;;;-147.53;100.00;57128.34;10143027;29;20608;-83
2023/04/28 03:33:17;;;;;;;3.55;2.58;;;;;;;-147.53;100.00;57128.34;10126076;29;20150;-84
2023/04/28 03:38:19;;;;;;;3.95;2.58;;;;;;;-147.53;100.00;57128.34;10141904;29;20044;-85
2023/04/28 03:43:21;;;;;;;4.32;1.92;;;;;;;-147.53;100.00;57128.34;10141846;29;20085;-84
2023/04/28 03:48:55;;;;;;;3.30;1.00;;;;;;;-147.53;100.00;57128.34;10152878;29;20068;-83
2023/04/28 03:53:58;;;;;;;3.55;2.03;;;;;;;-147.53;100.00;57128.34;10141796;29;20124;-82
2023/04/28 03:58:59;;;;;;;3.08;1.77;;;;;;;-147.53;100.00;57128.34;10138365;29;20103;-83
2023/04/28 04:04:01;;;;;;;3.45;2.08;;;;;;;-147.53;100.00;57128.34;10149497;29;20099;-83
2023/04/28 04:09:03;;;;;;;6.07;2.83;;;;;;;-147.53;100.00;57128.34;10149645;29;20044;-83
2023/04/28 04:14:06;;;;;;;4.50;3.13;;;;;;;-147.53;100.00;57128.34;10149414;29;20048;-83
2023/04/28 04:19:08;;;;;;;2.28;1.23;;;;;;;-147.53;100.00;57128.34;10148928;29;20103;-82
2023/04/28 04:24:20;;;;;;;3.92;2.03;;;;;;;-147.53;100.00;57128.34;10134208;29;20047;-83
2023/04/28 04:29:22;;;;;;;5.32;2.88;;;;;;;-147.53;100.00;57128.34;10132540;29;20170;-84
2023/04/28 04:34:25;;;;;;;5.95;2.30;;;;;;;-147.53;100.00;57128.34;10147405;29;20140;-83
2023/04/28 04:39:27;;;;;;;1.88;1.27;;;;;;;-147.53;100.00;57128.34;10147030;29;20048;-83
2023/04/28 04:44:28;;;;;;;4.88;2.15;;;;;;;-147.53;100.00;57128.34;10146673;29;20048;-83
2023/04/28 04:49:31;;;;;;;2.88;1.73;;;;;;;-147.53;100.00;57128.34;10147478;29;20119;-83
2023/04/28 04:54:32;;;;;;;1.92;1.55;;;;;;;-147.53;100.00;57128.34;10146427;29;20052;-83
2023/04/28 04:59:34;;;;;;;5.32;2.60;;;;;;;-147.53;100.00;57128.34;10139572;29;20131;-83
2023/04/28 05:04:42;;;;;;;2.78;1.33;;;;;;;-147.53;100.00;57128.34;10146361;29;20279;-83
2023/04/28 05:09:47;;;;;;;3.65;1.90;;;;;;;-147.53;100.00;57128.34;10148493;29;20044;-84
2023/04/28 05:14:49;;;;;;;4.43;2.28;;;;;;;-147.53;100.00;57128.34;10133423;29;20120;-82
2023/04/28 05:19:53;;;;;;;3.35;1.75;;;;;;;-147.53;100.00;57128.34;10146707;29;20044;-82
2023/04/28 05:24:55;;;;;;;4.35;2.03;;;;;;;-147.53;100.00;57128.34;10147281;29;20056;-82
2023/04/28 05:29:58;;;;;;;5.18;2.67;;;;;;;-147.53;100.00;57128.34;10146928;29;20056;-83
2023/04/28 05:35:01;;;;;;;2.92;1.45;;;;;;;-147.53;100.00;57128.34;10145005;29;20055;-82
2023/04/28 05:40:04;;;;;;;3.30;2.00;;;;;;;-147.53;100.00;57128.34;10164591;29;20123;-80
2023/04/28 05:45:07;;;;;;;2.45;1.23;;;;;;;-147.53;100.00;57128.34;10145585;29;20088;-81
2023/04/28 05:50:09;;;;;;;5.13;1.63;;;;;;;-147.53;100.00;57128.34;10131216;29;20044;-83
2023/04/28 05:55:11;;;;;;;2.10;1.55;;;;;;;-147.53;100.00;57128.34;10145258;29;20108;-81
2023/04/28 06:00:13;;;;;;;2.03;1.23;;;;;;;-147.53;100.00;57128.34;10142172;29;20056;-82
2023/04/28 06:05:15;;;;;;;3.28;1.67;;;;;;;-147.53;100.00;57128.34;10141135;29;20060;-83
2023/04/28 06:10:18;;;;;;;5.72;1.88;;;;;;;-147.53;100.00;57128.34;10141587;29;20484;-83
2023/04/28 06:15:20;;;;;;;2.90;1.45;;;;;;;-147.53;100.00;57128.34;10141338;29;20079;-83
2023/04/28 06:20:22;;;;;;;3.10;1.50;;;;;;;-147.53;100.00;57128.34;10140477;29;20425;-81
2023/04/28 06:25:23;;;;;;;5.10;1.73;;;;;;;-147.53;100.00;57128.34;10140872;29;20082;-83
2023/04/28 06:30:25;;;;;;;3.53;2.05;;;;;;;-147.53;100.00;57128.34;10159306;29;20052;-83
2023/04/28 06:35:28;;;;;;;1.88;1.25;;;;;;;-147.53;100.00;57128.34;10160979;29;20052;-84
2023/04/28 06:40:30;;;;;;;3.53;1.52;;;;;;;-147.53;100.00;57128.34;10126404;29;20425;-85
2023/04/28 06:45:34;;;;;;;3.65;1.55;;;;;;;-147.53;100.00;57128.34;10145464;29;20138;-84
2023/04/28 06:50:36;;;;;;;2.75;1.33;;;;;;;-147.53;100.00;57128.34;10141950;29;20143;-81
2023/04/28 06:55:40;;;;;;;1.58;1.15;;;;;;;-147.53;100.00;57128.34;10110288;29;20155;-84
2023/04/28 07:00:42;;;;;;;3.17;1.52;;;;;;;-147.53;100.00;57128.34;10157841;29;20540;-84
2023/04/28 07:05:43;;;;;;;4.93;1.48;;;;;;;-147.53;100.00;57128.34;10157512;29;20060;-85
2023/04/28 07:10:45;;;;;;;3.17;1.60;;;;;;;-147.53;100.00;57128.34;10158150;29;20087;-86
2023/04/28 07:15:47;;;;;;;3.28;1.48;;;;;;;-147.53;100.00;57128.34;10157709;29;20072;-86
2023/04/28 07:20:48;;;;;;;7.75;1.80;;;;;;;-147.53;100.00;57128.34;10156574;29;20058;-85
2023/04/28 07:25:50;;;;;;;1.27;1.00;;;;;;;-147.53;100.00;57128.34;10157075;29;20063;-85
2023/04/28 07:30:52;;;;;;;6.82;1.95;;;;;;;-147.53;100.00;57128.34;10156671;29;20532;-85
2023/04/28 07:35:54;;;;;;;3.17;1.73;;;;;;;-147.53;100.00;57128.34;10146900;29;20060;-86
2023/04/28 07:40:56;;;;;;;7.63;2.05;;;;;;;-147.53;100.00;57128.34;10147530;29;20044;-85
2023/04/28 07:45:57;;;;;;;3.38;1.73;;;;;;;-147.53;100.00;57128.34;10164905;29;20516;-86
2023/04/28 07:50:59;;;;;;;4.22;1.73;;;;;;;-147.53;100.00;57128.34;10165075;29;20122;-84
2023/04/28 07:56:01;;;;;;;4.18;1.30;;;;;;;-147.53;100.00;57128.34;10164392;29;20135;-88
2023/04/28 08:01:03;;;;;;;3.38;1.67;;;;;;;-147.53;100.00;57128.34;10165005;29;20521;-83
2023/04/28 08:06:05;;;;;;;3.53;1.48;;;;;;;-147.53;100.00;57128.34;10163611;29;20431;-84
2023/04/28 08:11:08;;;;;;;3.53;1.55;;;;;;;-147.53;100.00;57128.34;10164374;29;20141;-84
2023/04/28 08:16:10;;;;;;;4.68;2.08;;;;;;;-147.53;100.00;57128.34;10146596;29;20052;-84
2023/04/28 08:21:11;;;;;;;4.43;1.92;;;;;;;-147.53;100.00;57128.34;10162909;29;20429;-84
2023/04/28 08:26:13;;;;;;;4.72;1.75;;;;;;;-147.53;100.00;57128.34;10163346;29;20063;-84
2023/04/28 08:31:14;;;;;;;4.57;1.75;;;;;;;-147.53;100.00;57128.34;10164532;29;20056;-84
2023/04/28 08:36:17;;;;;;;4.13;1.98;;;;;;;-147.53;100.00;57128.34;10163304;29;20171;-84
2023/04/28 08:41:18;;;;;;;3.42;1.52;;;;;;;-147.53;100.00;57128.34;10163718;29;20052;-85
2023/04/28 08:46:23;;;;;;;5.80;2.30;;;;;;;-147.53;100.00;57128.34;10162035;29;20068;-84
2023/04/28 08:51:32;;;;;;;3.60;1.63;;;;;;;-147.53;100.00;57128.34;10163549;29;20047;-83
2023/04/28 08:56:34;;;;;;;6.43;1.80;;;;;;;-147.53;100.00;57128.34;10166284;29;20397;-84
2023/04/28 09:01:36;;;;;;;5.90;2.10;;;;;;;-147.53;100.00;57128.34;10168504;29;20075;-84
2023/04/28 09:06:38;;;;;;;4.65;2.10;;;;;;;-147.53;100.00;57128.34;10179699;29;20072;-84
2023/04/28 09:11:52;;;;;;;5.53;2.17;;;;;;;-147.53;100.00;57128.34;10171645;29;20429;-83
2023/04/28 09:16:54;;;;;;;7.20;2.08;;;;;;;-147.53;100.00;57128.34;10153507;29;20086;-84
2023/04/28 09:21:56;;;;;;;5.35;2.25;;;;;;;-147.53;100.00;57128.34;10161686;29;20080;-85
2023/04/28 09:27:01;;;;;;;4.38;2.08;;;;;;;-147.53;100.00;57128.34;10144555;29;20060;-84
2023/04/28 09:32:16;;;;;;;4.93;2.22;;;;;;;-147.53;100.00;57128.34;10129463;29;20048;-84
2023/04/28 09:37:20;;;;;;;5.15;2.38;;;;;;;-147.53;100.00;57128.34;10143843;29;20108;-84
2023/04/28 09:42:41;;;;;;;4.25;1.80;;;;;;;-147.53;100.00;57128.34;10160402;29;20100;-84
2023/04/28 09:47:47;;;;;;;7.93;2.30;;;;;;;-147.53;100.00;57128.34;10145449;29;20079;-86
2023/04/28 09:52:56;;;;;;;4.13;1.85;;;;;;;-147.53;100.00;57128.34;10127882;29;20048;-82
2023/04/28 09:58:04;;;;;;;5.78;2.63;;;;;;;-147.53;100.00;57128.34;10158864;29;20444;-83
2023/04/28 10:03:08;;;;;;;4.57;2.22;;;;;;;-147.53;100.00;57128.34;10141483;29;20131;-84
2023/04/28 10:08:12;;;;;;;5.35;2.50;;;;;;;-147.53;100.00;57128.34;10141657;29;20505;-84
2023/04/28 10:13:16;;;;;;;6.45;2.45;;;;;;;-147.53;100.00;57128.34;10158323;29;20539;-84
2023/04/28 10:18:18;;;;;;;8.73;2.42;;;;;;;-147.53;100.00;57128.34;10158516;29;20212;-84
2023/04/28 10:23:54;;;;;;;4.90;2.28;;;;;;;-147.53;100.00;57128.34;10126045;29;20052;-83
2023/04/28 10:28:56;;;;;;;6.15;2.75;;;;;;;-147.53;100.00;57128.34;10162516;29;20520;-82
2023/04/28 10:34:21;;;;;;;4.32;2.13;;;;;;;-147.53;100.00;57128.34;10131048;29;20160;-83
2023/04/28 10:39:22;;;;;;;5.32;2.17;;;;;;;-147.53;100.00;57128.34;10125755;29;20066;-84
2023/04/28 10:44:27;;;;;;;4.63;1.92;;;;;;;-147.53;100.00;57128.34;10134388;29;20365;-83
2023/04/28 10:49:54;;;;;;;5.78;2.17;;;;;;;-147.53;100.00;57128.34;10146318;29;20129;-83
2023/04/28 10:55:38;;;;;;;5.35;2.20;;;;;;;-147.53;100.00;57128.34;10138124;29;20059;-83
2023/04/28 11:00:40;;;;;;;6.28;2.40;;;;;;;-147.53;100.00;57128.34;10130888;29;20071;-83
2023/04/28 11:06:26;;;;;;;6.70;2.38;;;;;;;-147.53;100.00;57128.34;10149272;29;20059;-83
2023/04/28 11:11:28;;;;;;;7.13;2.72;;;;;;;-147.53;100.00;57128.34;10122456;29;20506;-83
2023/04/28 11:16:30;;;;;;;6.50;2.85;;;;;;;-147.53;100.00;57128.34;10085839;29;20733;-84
2023/04/28 11:21:32;;;;;;;5.90;2.22;;;;;;;-147.53;100.00;57128.34;10104892;29;20052;-84
2023/04/28 11:26:36;;;;;;;4.90;2.55;;;;;;;-147.53;100.00;57128.34;10129174;29;20424;-85
2023/04/28 11:31:37;;;;;;;7.28;3.22;;;;;;;-147.53;100.00;57128.34;10100070;29;20144;-84
2023/04/28 11:36:40;;;;;;;8.52;2.85;;;;;;;-147.53;100.00;57128.34;10107154;29;20348;-84
2023/04/28 11:41:43;;;;;;;8.10;2.95;;;;;;;-147.53;100.00;57128.34;10103727;29;20052;-84
2023/04/28 11:46:49;;;;;;;7.13;3.15;;;;;;;-147.53;100.00;57128.34;10120839;29;20103;-85
2023/04/28 11:51:51;;;;;;;6.15;2.80;;;;;;;-147.53;100.00;57128.34;10099383;29;20052;-84
2023/04/28 11:56:55;;;;;;;5.45;2.42;;;;;;;-147.53;100.00;57128.34;10124320;29;20053;-84
2023/04/28 12:01:59;;;;;;;6.38;2.80;;;;;;;-147.53;100.00;57128.34;10116276;29;20063;-84
2023/04/28 12:07:12;;;;;;;8.45;3.10;;;;;;;-147.53;100.00;57128.34;10140197;29;20074;-85
2023/04/28 12:12:28;;;;;;;6.85;3.08;;;;;;;-147.53;100.00;57128.34;10157268;29;20528;-84
2023/04/28 12:17:46;;;;;;;8.05;3.55;;;;;;;-147.53;100.00;57128.34;10141180;29;20139;-84
2023/04/28 12:22:49;;;;;;;8.07;2.63;;;;;;;-147.53;100.00;57128.34;10164096;29;20044;-84
2023/04/28 12:28:01;;;;;;;6.25;2.80;;;;;;;-147.53;100.00;57128.34;10165443;29;20127;-85
2023/04/28 12:33:03;;;;;;;6.88;3.17;;;;;;;-147.53;100.00;57128.34;10163275;29;20086;-84
2023/04/28 12:38:04;;;;;;;5.68;2.72;;;;;;;-147.53;100.00;57128.34;10163352;29;20592;-85
2023/04/28 12:43:06;;;;;;;5.70;3.00;;;;;;;-147.53;100.00;57128.34;10146563;29;21014;-85
2023/04/28 12:48:08;;;;;;;7.32;3.40;;;;;;;-147.53;100.00;57128.34;10138539;29;20490;-83
2023/04/28 12:53:10;;;;;;;6.75;3.08;;;;;;;-147.53;100.00;57128.34;10164712;29;20209;-85
2023/04/28 12:58:11;;;;;;;6.30;3.15;;;;;;;-147.53;100.00;57128.34;10165391;29;20878;-82
2023/04/28 13:03:14;;;;;;;8.48;3.38;;;;;;;-147.53;100.00;57128.34;10147866;29;20062;-85
2023/04/28 13:08:16;;;;;;;7.20;3.25;;;;;;;-147.53;100.00;57128.34;10160673;29;20087;-84
2023/04/28 13:13:18;;;;;;;5.95;2.60;;;;;;;-147.53;100.00;57128.34;10172528;29;20139;-85
2023/04/28 13:18:19;;;;;;;8.57;3.05;;;;;;;-147.53;100.00;57128.34;10149060;29;20050;-83
2023/04/28 13:23:21;;;;;;;7.10;3.80;;;;;;;-147.53;100.00;57128.34;10162328;29;20417;-84
2023/04/28 13:28:23;;;;;;;7.45;3.65;;;;;;;-147.53;100.00;57128.34;10160794;29;20052;-84
2023/04/28 13:33:29;;;;;;;7.10;3.17;;;;;;;-147.53;100.00;57128.34;10161432;29;20428;-84
2023/04/28 13:38:31;;;;;;;7.30;3.00;;;;;;;-147.53;100.00;57128.34;10144184;29;20045;-84
2023/04/28 13:43:33;;;;;;;6.60;3.30;;;;;;;-147.53;100.00;57128.34;10143730;29;20056;-84
2023/04/28 13:48:35;;;;;;;7.18;3.28;;;;;;;-147.53;100.00;57128.34;10143401;29;20524;-84
2023/04/28 13:53:37;;;;;;;8.43;3.60;;;;;;;-147.53;100.00;57128.34;10160090;29;20059;-84
2023/04/28 13:58:39;;;;;;;5.07;2.42;;;;;;;-147.53;100.00;57128.34;10160183;29;20075;-85
2023/04/28 14:03:40;;;;;;;5.30;2.70;;;;;;;-147.53;100.00;57128.34;10155744;29;20127;-84
2023/04/28 14:08:42;;;;;;;5.22;2.85;;;;;;;-147.53;100.00;57128.34;10181351;29;20104;-84
2023/04/28 14:13:44;;;;;;;7.00;3.40;;;;;;;-147.53;100.00;57128.34;10169525;29;20052;-84
2023/04/28 14:18:46;;;;;;;6.72;3.05;;;;;;;-147.53;100.00;57128.34;10146574;29;20076;-85
2023/04/28 14:23:48;;;;;;;8.52;3.55;;;;;;;-147.53;100.00;57128.34;10151448;29;20433;-85
2023/04/28 14:28:50;;;;;;;10.70;3.50;;;;;;;-147.53;100.00;57128.34;10136006;29;20652;-85
2023/04/28 14:33:51;;;;;;;8.00;3.45;;;;;;;-147.53;100.00;57128.34;10129153;29;20059;-85
2023/04/28 14:38:56;;;;;;;7.70;3.03;;;;;;;-147.53;100.00;57128.34;10123090;29;20462;-84
2023/04/28 14:43:58;;;;;;;6.55;3.17;;;;;;;-147.53;100.00;57128.34;10105646;29;20081;-85
2023/04/28 14:49:01;;;;;;;8.00;3.10;;;;;;;-147.53;100.00;57128.34;10138892;29;20107;-84
2023/04/28 14:54:03;;;;;;;7.03;3.22;;;;;;;-147.53;100.00;57128.34;10143018;29;20045;-84
2023/04/28 14:59:05;;;;;;;7.60;3.45;;;;;;;-147.53;100.00;57128.34;10113183;29;20060;-85
2023/04/28 15:04:17;;;;;;;11.40;3.63;;;;;;;-147.53;100.00;57128.34;10084613;29;20064;-85
2023/04/28 15:09:23;;;;;;;6.65;3.30;;;;;;;-147.53;100.00;57128.34;10113800;29;20075;-85
2023/04/28 15:14:37;;;;;;;7.68;3.28;;;;;;;-147.53;100.00;57128.34;10145247;29;20107;-84
2023/04/28 15:19:46;;;;;;;7.50;3.45;;;;;;;-147.53;100.00;57128.34;10156006;29;20054;-85
2023/04/28 15:24:55;;;;;;;5.82;3.10;;;;;;;-147.53;100.00;57128.34;10127445;29;20056;-86
2023/04/28 15:30:17;;;;;;;7.72;3.78;;;;;;;-147.53;100.00;57128.34;10124742;29;20063;-86
2023/04/28 15:35:29;;;;;;;6.85;2.92;;;;;;;-147.53;100.00;57128.34;10116765;29;20123;-86
2023/04/28 15:40:48;;;;;;;6.95;3.33;;;;;;;-147.53;100.00;57128.34;10139878;29;20045;-86
2023/04/28 15:46:02;;;;;;;6.38;3.22;;;;;;;-147.53;100.00;57128.34;10140800;29;20092;-86
2023/04/28 15:51:14;;;;;;;8.15;3.88;;;;;;;-147.53;100.00;57128.34;10129510;29;20044;-87
2023/04/28 15:56:22;;;;;;;7.30;3.88;;;;;;;-147.53;100.00;57128.34;10146909;29;20066;-86
2023/04/28 16:01:50;;;;;;;9.05;4.25;;;;;;;-147.53;100.00;57128.34;10145640;29;20056;-86
2023/04/28 16:07:01;;;;;;;10.07;3.55;;;;;;;-147.53;100.00;57128.34;10121169;29;20092;-87
2023/04/28 16:12:27;;;;;;;6.88;3.45;;;;;;;-147.53;100.00;57128.34;10051001;29;20064;-88
2023/04/28 16:17:59;;;;;;;7.37;3.83;;;;;;;-147.53;100.00;57128.34;10114191;29;20139;-88
2023/04/28 16:23:15;;;;;;;8.75;3.50;;;;;;;-147.53;100.00;57128.34;10133128;29;20146;-87
2023/04/28 16:42:47;;;;;;;8.45;4.07;;;;;;;-147.53;100.00;57128.34;10410069;23;20048;-87
2023/04/28 17:00:48;;;;;;;10.80;4.05;;;;;;;-147.53;100.00;57128.34;10008748;29;20373;-86
2023/04/28 17:06:08;;;;;;;8.88;4.35;;;;;;;-147.53;100.00;57128.34;9994814;29;20222;-85
2023/04/28 17:11:31;;;;;;;10.20;5.10;;;;;;;-147.53;100.00;57128.34;9948571;29;20050;-86
2023/04/28 17:17:08;;;;;;;11.80;3.85;;;;;;;-147.53;100.00;57128.34;9961217;29;20185;-86
2023/04/28 17:23:14;;;;;;;7.97;3.80;;;;;;;-147.53;100.00;57128.34;9987755;29;20496;-86
2023/04/28 17:28:31;;;;;;;12.27;5.03;;;;;;;-147.53;100.00;57128.34;9960730;29;20141;-86
2023/04/28 17:46:13;;;;;;;10.10;4.50;;;;;;;-147.53;100.00;57128.34;10325023;23;20067;-85
2023/04/28 17:51:44;;;;;;;8.90;4.50;;;;;;;-147.53;100.00;57128.34;10183896;23;20144;-85
2023/04/28 17:57:26;;;;;;;8.43;4.18;;;;;;;-147.53;100.00;57128.34;9989778;29;20058;-86
2023/04/28 18:10:09;;;;;;;8.73;4.65;;;;;;;-147.53;100.00;57128.34;10135183;29;20633;-84
2023/04/28 18:15:40;;;;;;;8.38;3.65;;;;;;;-147.53;100.00;57128.34;10166002;29;20119;-86
2023/04/28 18:21:09;;;;;;;9.18;4.18;;;;;;;-147.53;100.00;57128.34;10132472;29;20055;-85
2023/04/28 18:26:23;;;;;;;8.48;3.65;;;;;;;-147.53;100.00;57128.34;10139225;29;20429;-84
2023/04/28 18:31:30;;;;;;;7.10;4.03;;;;;;;-147.53;100.00;57128.34;10156639;29;20052;-84
2023/04/28 18:37:22;;;;;;;9.13;4.53;;;;;;;-147.53;100.00;57128.34;10161461;29;20078;-84
2023/04/28 18:43:18;;;;;;;9.45;5.18;;;;;;;-147.53;100.00;57128.34;10113382;29;20068;-85
2023/04/28 18:48:47;;;;;;;8.25;4.38;;;;;;;-147.53;100.00;57128.34;10164927;29;20051;-85
2023/04/28 19:02:24;;;;;;;7.00;3.55;;;;;;;-147.53;100.00;57128.34;10149173;29;20056;-85
2023/04/28 19:08:19;;;;;;;7.90;3.80;;;;;;;-147.53;100.00;57128.34;10141779;29;20428;-85
2023/04/28 19:28:39;;;;;;;9.60;4.93;;;;;;;-147.53;100.00;57128.34;9984266;29;20102;-85
2023/04/28 19:41:13;;;;;;;11.43;5.28;;;;;;;-147.53;100.00;57128.34;10139310;23;20056;-86
2023/04/28 19:47:32;;;;;;;9.65;5.35;;;;;;;-147.53;100.00;57128.34;10075412;28;20439;-85
2023/04/28 20:19:14;;;;;;;9.80;5.68;;;;;;;-147.53;100.00;57128.34;10048605;29;20042;-86
2023/04/28 20:31:47;;;;;;;10.27;4.55;;;;;;;-147.53;100.00;57128.34;10026959;29;20543;-86
2023/04/28 20:50:32;;;;;;;7.78;4.35;;;;;;;-147.53;100.00;57128.34;10132842;29;20103;-85
2023/04/28 20:56:04;;;;;;;9.70;5.25;;;;;;;-147.53;100.00;57128.34;10131787;29;20147;-85
2023/04/28 21:01:41;;;;;;;9.43;4.55;;;;;;;-147.53;100.00;57128.34;10144710;29;20052;-85
2023/04/28 21:07:44;;;;;;;8.80;5.72;;;;;;;-147.53;100.00;57128.34;10146911;29;20127;-85
2023/04/28 21:13:02;;;;;;;9.80;4.53;;;;;;;-147.53;100.00;57128.34;10134360;29;20056;-85
2023/04/28 21:18:30;;;;;;;7.30;4.20;;;;;;;-147.53;100.00;57128.34;10144746;29;20052;-85
2023/04/28 21:23:50;;;;;;;8.13;4.15;;;;;;;-147.53;100.00;57128.34;10125153;29;20107;-85
2023/04/28 21:47:54;;;;;;;7.70;4.22;;;;;;;-147.53;100.00;57128.34;10326671;23;20075;-84
2023/04/28 22:01:05;;;;;;;6.38;3.53;;;;;;;-147.53;100.00;57128.34;10140719;29;20048;-85
2023/04/28 22:07:16;;;;;;;7.28;3.78;;;;;;;-147.53;100.00;57128.34;10137356;29;20044;-85
2023/04/28 22:13:11;;;;;;;8.30;4.45;;;;;;;-147.53;100.00;57128.34;10141139;29;20044;-85
2023/04/28 22:18:40;;;;;;;6.88;4.20;;;;;;;-147.53;100.00;57128.34;10138101;29;20052;-85
2023/04/28 22:23:57;;;;;;;8.23;4.85;;;;;;;-147.53;100.00;57128.34;10155200;29;20056;-85
2023/04/28 22:35:41;;;;;;;9.02;4.45;;;;;;;-147.53;100.00;57128.34;10139462;29;20052;-85
2023/04/28 22:41:54;;;;;;;14.50;5.20;;;;;;;-147.53;100.00;57128.34;10126971;29;20048;-85
2023/04/28 23:01:53;;;;;;;8.35;4.57;;;;;;;-147.53;100.00;57128.34;9945710;29;20148;-84
2023/04/28 23:13:48;;;;;;;8.90;4.93;;;;;;;-147.53;100.00;57128.34;10119260;29;20558;-85
2023/04/28 23:19:51;;;;;;;8.15;5.20;;;;;;;-147.53;100.00;57128.34;10122908;29;20051;-85
2023/04/28 23:45:14;;;;;;;8.77;5.18;;;;;;;-147.53;100.00;57128.34;9944399;29;20157;-85
